sensor_id;sensor_type;location;lat;lon;timestamp;temperature;humidity
21348;DHT22;66030;53.582;9.746;2023-12-20T00:01:18;18.40;99.90
21348;DHT22;66030;53.582;9.746;2023-12-20T00:03:46;18.30;99.90
21348;DHT22;66030;53.582;9.746;2023-12-20T00:06:14;18.30;99.90
21348;DHT22;66030;53.582;9.746;2023-12-20T00:08:43;18.30;99.90
21348;DHT22;66030;53.582;9.746;2023-12-20T00:11:11;18.30;99.90
21348;DHT22;66030;53.582;9.746;2023-12-20T00:13:39;18.30;99.90
21348;DHT22;66030;53.582;9.746;2023-12-20T00:16:07;18.20;99.90
21348;DHT22;66030;53.582;9.746;2023-12-20T00:18:35;18.20;99.90
21348;DHT22;66030;53.582;9.746;2023-12-20T00:21:03;18.20;99.90
21348;DHT22;66030;53.582;9.746;2023-12-20T00:23:31;18.20;99.90
21348;DHT22;66030;53.582;9.746;2023-12-20T00:26:00;18.20;99.90
21348;DHT22;66030;53.582;9.746;2023-12-20T00:28:28;18.20;99.90
21348;DHT22;66030;53.582;9.746;2023-12-20T00:30:56;18.20;99.90
21348;DHT22;66030;53.582;9.746;2023-12-20T00:33:24;18.20;99.90
21348;DHT22;66030;53.582;9.746;2023-12-20T00:35:52;18.10;99.90
21348;DHT22;66030;53.582;9.746;2023-12-20T00:38:19;18.10;99.90
21348;DHT22;66030;53.582;9.746;2023-12-20T00:40:47;18.10;99.90
21348;DHT22;66030;53.582;9.746;2023-12-20T00:43:17;18.10;99.90
21348;DHT22;66030;53.582;9.746;2023-12-20T00:45:45;18.10;99.90
21348;DHT22;66030;53.582;9.746;2023-12-20T00:48:13;18.10;99.90
21348;DHT22;66030;53.582;9.746;2023-12-20T00:50:41;18.10;99.90
21348;DHT22;66030;53.582;9.746;2023-12-20T00:53:09;18.00;99.90
21348;DHT22;66030;53.582;9.746;2023-12-20T00:55:36;18.00;99.90
21348;DHT22;66030;53.582;9.746;2023-12-20T00:58:04;18.00;99.90
21348;DHT22;66030;53.582;9.746;2023-12-20T01:00:33;18.00;99.90
21348;DHT22;66030;53.582;9.746;2023-12-20T01:03:01;18.00;99.90
21348;DHT22;66030;53.582;9.746;2023-12-20T01:05:29;18.00;99.90
21348;DHT22;66030;53.582;9.746;2023-12-20T01:07:57;18.00;99.90
21348;DHT22;66030;53.582;9.746;2023-12-20T01:10:24;18.00;99.90
21348;DHT22;66030;53.582;9.746;2023-12-20T01:12:54;18.00;99.90
21348;DHT22;66030;53.582;9.746;2023-12-20T01:15:22;18.00;99.90
21348;DHT22;66030;53.582;9.746;2023-12-20T01:17:51;17.90;99.90
21348;DHT22;66030;53.582;9.746;2023-12-20T01:20:19;17.90;99.90
21348;DHT22;66030;53.582;9.746;2023-12-20T01:22:47;17.90;99.90
21348;DHT22;66030;53.582;9.746;2023-12-20T01:25:15;18.00;99.90
21348;DHT22;66030;53.582;9.746;2023-12-20T01:27:43;18.00;99.90
21348;DHT22;66030;53.582;9.746;2023-12-20T01:30:12;18.00;99.90
21348;DHT22;66030;53.582;9.746;2023-12-20T01:32:40;18.00;99.90
21348;DHT22;66030;53.582;9.746;2023-12-20T01:35:09;18.00;99.90
21348;DHT22;66030;53.582;9.746;2023-12-20T01:37:39;18.00;99.90
21348;DHT22;66030;53.582;9.746;2023-12-20T01:40:07;18.00;99.90
21348;DHT22;66030;53.582;9.746;2023-12-20T01:42:35;18.00;99.90
21348;DHT22;66030;53.582;9.746;2023-12-20T01:45:04;18.00;99.90
21348;DHT22;66030;53.582;9.746;2023-12-20T01:47:32;18.00;99.90
21348;DHT22;66030;53.582;9.746;2023-12-20T01:50:01;18.00;99.90
21348;DHT22;66030;53.582;9.746;2023-12-20T01:52:32;17.90;99.90
21348;DHT22;66030;53.582;9.746;2023-12-20T01:55:01;17.90;99.90
21348;DHT22;66030;53.582;9.746;2023-12-20T01:57:31;17.90;99.90
21348;DHT22;66030;53.582;9.746;2023-12-20T01:59:59;17.90;99.90
21348;DHT22;66030;53.582;9.746;2023-12-20T02:02:27;17.90;99.90
21348;DHT22;66030;53.582;9.746;2023-12-20T02:04:56;17.90;99.90
21348;DHT22;66030;53.582;9.746;2023-12-20T02:07:24;17.90;99.90
21348;DHT22;66030;53.582;9.746;2023-12-20T02:09:53;17.90;99.90
21348;DHT22;66030;53.582;9.746;2023-12-20T02:12:21;17.90;99.90
21348;DHT22;66030;53.582;9.746;2023-12-20T02:14:49;17.90;99.90
21348;DHT22;66030;53.582;9.746;2023-12-20T02:17:17;17.90;99.90
21348;DHT22;66030;53.582;9.746;2023-12-20T02:19:45;17.90;99.90
21348;DHT22;66030;53.582;9.746;2023-12-20T02:22:15;17.90;99.90
21348;DHT22;66030;53.582;9.746;2023-12-20T02:24:43;17.90;99.90
21348;DHT22;66030;53.582;9.746;2023-12-20T02:27:11;17.90;99.90
21348;DHT22;66030;53.582;9.746;2023-12-20T02:29:39;17.90;99.90
21348;DHT22;66030;53.582;9.746;2023-12-20T02:32:07;17.80;99.90
21348;DHT22;66030;53.582;9.746;2023-12-20T02:34:35;17.80;99.90
21348;DHT22;66030;53.582;9.746;2023-12-20T02:37:03;17.80;99.90
21348;DHT22;66030;53.582;9.746;2023-12-20T02:39:32;17.80;99.90
21348;DHT22;66030;53.582;9.746;2023-12-20T02:42:00;17.80;99.90
21348;DHT22;66030;53.582;9.746;2023-12-20T02:44:28;17.80;99.90
21348;DHT22;66030;53.582;9.746;2023-12-20T02:46:56;17.80;99.90
21348;DHT22;66030;53.582;9.746;2023-12-20T02:49:24;17.80;99.90
21348;DHT22;66030;53.582;9.746;2023-12-20T02:51:52;17.80;99.90
21348;DHT22;66030;53.582;9.746;2023-12-20T02:54:20;17.80;99.90
21348;DHT22;66030;53.582;9.746;2023-12-20T02:56:49;17.80;99.90
21348;DHT22;66030;53.582;9.746;2023-12-20T02:59:16;17.80;99.90
21348;DHT22;66030;53.582;9.746;2023-12-20T03:01:45;17.80;99.90
21348;DHT22;66030;53.582;9.746;2023-12-20T03:04:13;17.80;99.90
21348;DHT22;66030;53.582;9.746;2023-12-20T03:06:41;17.80;99.90
21348;DHT22;66030;53.582;9.746;2023-12-20T03:09:09;17.80;99.90
21348;DHT22;66030;53.582;9.746;2023-12-20T03:11:37;17.80;99.90
21348;DHT22;66030;53.582;9.746;2023-12-20T03:14:06;17.80;99.90
21348;DHT22;66030;53.582;9.746;2023-12-20T03:16:34;17.70;99.90
21348;DHT22;66030;53.582;9.746;2023-12-20T03:19:02;17.70;99.90
21348;DHT22;66030;53.582;9.746;2023-12-20T03:21:30;17.70;99.90
21348;DHT22;66030;53.582;9.746;2023-12-20T03:23:58;17.70;99.90
21348;DHT22;66030;53.582;9.746;2023-12-20T03:26:26;17.70;99.90
21348;DHT22;66030;53.582;9.746;2023-12-20T03:28:54;17.70;99.90
21348;DHT22;66030;53.582;9.746;2023-12-20T03:31:23;17.70;99.90
21348;DHT22;66030;53.582;9.746;2023-12-20T03:33:50;17.70;99.90
21348;DHT22;66030;53.582;9.746;2023-12-20T03:36:20;17.70;99.90
21348;DHT22;66030;53.582;9.746;2023-12-20T03:38:48;17.80;99.90
21348;DHT22;66030;53.582;9.746;2023-12-20T03:41:15;17.80;99.90
21348;DHT22;66030;53.582;9.746;2023-12-20T03:43:43;17.80;99.90
21348;DHT22;66030;53.582;9.746;2023-12-20T03:46:11;17.70;99.90
21348;DHT22;66030;53.582;9.746;2023-12-20T03:48:40;17.70;99.90
21348;DHT22;66030;53.582;9.746;2023-12-20T03:51:08;17.70;99.90
21348;DHT22;66030;53.582;9.746;2023-12-20T03:53:36;17.70;99.90
21348;DHT22;66030;53.582;9.746;2023-12-20T03:56:05;17.70;99.90
21348;DHT22;66030;53.582;9.746;2023-12-20T03:58:33;17.70;99.90
21348;DHT22;66030;53.582;9.746;2023-12-20T04:01:00;17.60;99.90
21348;DHT22;66030;53.582;9.746;2023-12-20T04:03:29;17.60;99.90
21348;DHT22;66030;53.582;9.746;2023-12-20T04:05:58;17.60;99.90
21348;DHT22;66030;53.582;9.746;2023-12-20T04:08:26;17.60;99.90
21348;DHT22;66030;53.582;9.746;2023-12-20T04:10:54;17.70;99.90
21348;DHT22;66030;53.582;9.746;2023-12-20T04:13:21;17.70;99.90
21348;DHT22;66030;53.582;9.746;2023-12-20T04:15:50;17.70;99.90
21348;DHT22;66030;53.582;9.746;2023-12-20T04:18:18;17.70;99.90
21348;DHT22;66030;53.582;9.746;2023-12-20T04:20:46;17.70;99.90
21348;DHT22;66030;53.582;9.746;2023-12-20T04:23:15;17.70;99.90
21348;DHT22;66030;53.582;9.746;2023-12-20T04:25:43;17.70;99.90
21348;DHT22;66030;53.582;9.746;2023-12-20T04:28:11;17.70;99.90
21348;DHT22;66030;53.582;9.746;2023-12-20T04:30:38;17.60;99.90
21348;DHT22;66030;53.582;9.746;2023-12-20T04:33:06;17.60;99.90
21348;DHT22;66030;53.582;9.746;2023-12-20T04:35:34;17.60;99.90
21348;DHT22;66030;53.582;9.746;2023-12-20T04:38:02;17.60;99.90
21348;DHT22;66030;53.582;9.746;2023-12-20T04:40:31;17.60;99.90
21348;DHT22;66030;53.582;9.746;2023-12-20T04:42:59;17.60;99.90
21348;DHT22;66030;53.582;9.746;2023-12-20T04:45:27;17.60;99.90
21348;DHT22;66030;53.582;9.746;2023-12-20T04:47:55;17.60;99.90
21348;DHT22;66030;53.582;9.746;2023-12-20T04:50:23;17.60;99.90
21348;DHT22;66030;53.582;9.746;2023-12-20T04:52:51;17.70;99.90
21348;DHT22;66030;53.582;9.746;2023-12-20T04:55:18;17.70;99.90
21348;DHT22;66030;53.582;9.746;2023-12-20T04:57:48;17.80;99.90
21348;DHT22;66030;53.582;9.746;2023-12-20T05:00:16;17.90;99.90
21348;DHT22;66030;53.582;9.746;2023-12-20T05:02:44;18.00;99.90
21348;DHT22;66030;53.582;9.746;2023-12-20T05:05:12;18.10;99.90
21348;DHT22;66030;53.582;9.746;2023-12-20T05:07:41;18.10;99.90
21348;DHT22;66030;53.582;9.746;2023-12-20T05:10:10;18.20;99.90
21348;DHT22;66030;53.582;9.746;2023-12-20T05:12:37;18.20;99.90
21348;DHT22;66030;53.582;9.746;2023-12-20T05:15:08;18.30;99.90
21348;DHT22;66030;53.582;9.746;2023-12-20T05:17:35;18.30;99.90
21348;DHT22;66030;53.582;9.746;2023-12-20T05:20:04;18.40;99.90
21348;DHT22;66030;53.582;9.746;2023-12-20T05:22:32;18.40;99.90
21348;DHT22;66030;53.582;9.746;2023-12-20T05:25:00;18.50;99.90
21348;DHT22;66030;53.582;9.746;2023-12-20T05:27:28;18.50;99.90
21348;DHT22;66030;53.582;9.746;2023-12-20T05:29:56;18.60;99.90
21348;DHT22;66030;53.582;9.746;2023-12-20T05:32:25;18.60;99.90
21348;DHT22;66030;53.582;9.746;2023-12-20T05:34:53;18.70;99.90
21348;DHT22;66030;53.582;9.746;2023-12-20T05:37:21;18.70;99.90
21348;DHT22;66030;53.582;9.746;2023-12-20T05:39:49;18.70;99.90
21348;DHT22;66030;53.582;9.746;2023-12-20T05:42:17;18.80;99.90
21348;DHT22;66030;53.582;9.746;2023-12-20T05:44:45;18.80;99.90
21348;DHT22;66030;53.582;9.746;2023-12-20T05:47:12;18.80;99.90
21348;DHT22;66030;53.582;9.746;2023-12-20T05:49:43;18.80;99.90
21348;DHT22;66030;53.582;9.746;2023-12-20T05:52:11;18.70;99.90
21348;DHT22;66030;53.582;9.746;2023-12-20T05:54:39;18.60;99.90
21348;DHT22;66030;53.582;9.746;2023-12-20T05:57:07;18.60;99.90
21348;DHT22;66030;53.582;9.746;2023-12-20T05:59:34;18.60;99.90
21348;DHT22;66030;53.582;9.746;2023-12-20T06:02:03;18.60;99.90
21348;DHT22;66030;53.582;9.746;2023-12-20T06:04:31;18.60;99.90
21348;DHT22;66030;53.582;9.746;2023-12-20T06:07:00;18.50;99.90
21348;DHT22;66030;53.582;9.746;2023-12-20T06:09:28;18.50;99.90
21348;DHT22;66030;53.582;9.746;2023-12-20T06:11:58;18.50;99.90
21348;DHT22;66030;53.582;9.746;2023-12-20T06:14:25;18.50;99.90
21348;DHT22;66030;53.582;9.746;2023-12-20T06:16:53;18.50;99.90
21348;DHT22;66030;53.582;9.746;2023-12-20T06:19:21;18.50;99.90
21348;DHT22;66030;53.582;9.746;2023-12-20T06:21:49;18.50;99.90
21348;DHT22;66030;53.582;9.746;2023-12-20T06:24:18;18.50;99.90
21348;DHT22;66030;53.582;9.746;2023-12-20T06:26:46;18.50;99.90
21348;DHT22;66030;53.582;9.746;2023-12-20T06:29:14;18.50;99.90
21348;DHT22;66030;53.582;9.746;2023-12-20T06:31:41;18.50;99.90
21348;DHT22;66030;53.582;9.746;2023-12-20T06:34:09;18.50;99.90
21348;DHT22;66030;53.582;9.746;2023-12-20T06:36:37;18.50;99.90
21348;DHT22;66030;53.582;9.746;2023-12-20T06:39:05;18.50;99.90
21348;DHT22;66030;53.582;9.746;2023-12-20T06:41:34;18.50;99.90
21348;DHT22;66030;53.582;9.746;2023-12-20T06:44:02;18.50;99.90
21348;DHT22;66030;53.582;9.746;2023-12-20T06:46:30;18.50;99.90
21348;DHT22;66030;53.582;9.746;2023-12-20T06:48:57;18.50;99.90
21348;DHT22;66030;53.582;9.746;2023-12-20T06:51:25;18.50;99.90
21348;DHT22;66030;53.582;9.746;2023-12-20T06:53:53;18.50;99.90
21348;DHT22;66030;53.582;9.746;2023-12-20T06:56:21;18.50;99.90
21348;DHT22;66030;53.582;9.746;2023-12-20T06:58:50;18.50;99.90
21348;DHT22;66030;53.582;9.746;2023-12-20T07:01:18;18.60;99.90
21348;DHT22;66030;53.582;9.746;2023-12-20T07:03:46;18.60;99.90
21348;DHT22;66030;53.582;9.746;2023-12-20T07:06:14;18.60;99.90
21348;DHT22;66030;53.582;9.746;2023-12-20T07:08:43;18.60;99.90
21348;DHT22;66030;53.582;9.746;2023-12-20T07:11:11;18.60;99.90
21348;DHT22;66030;53.582;9.746;2023-12-20T07:13:39;18.60;99.90
21348;DHT22;66030;53.582;9.746;2023-12-20T07:16:09;18.70;99.90
21348;DHT22;66030;53.582;9.746;2023-12-20T07:18:37;18.70;99.90
21348;DHT22;66030;53.582;9.746;2023-12-20T07:21:05;18.70;99.90
21348;DHT22;66030;53.582;9.746;2023-12-20T07:23:34;18.70;99.90
21348;DHT22;66030;53.582;9.746;2023-12-20T07:26:02;18.70;99.90
21348;DHT22;66030;53.582;9.746;2023-12-20T07:28:30;18.70;99.90
21348;DHT22;66030;53.582;9.746;2023-12-20T07:30:58;18.70;99.90
21348;DHT22;66030;53.582;9.746;2023-12-20T07:33:27;18.70;99.90
21348;DHT22;66030;53.582;9.746;2023-12-20T07:36:01;18.80;99.90
21348;DHT22;66030;53.582;9.746;2023-12-20T07:38:29;18.80;99.90
21348;DHT22;66030;53.582;9.746;2023-12-20T07:40:57;18.80;99.90
21348;DHT22;66030;53.582;9.746;2023-12-20T07:43:25;18.80;99.90
21348;DHT22;66030;53.582;9.746;2023-12-20T07:45:52;18.80;99.90
21348;DHT22;66030;53.582;9.746;2023-12-20T07:48:20;18.80;99.90
21348;DHT22;66030;53.582;9.746;2023-12-20T07:50:49;18.80;99.90
21348;DHT22;66030;53.582;9.746;2023-12-20T07:53:17;18.80;99.90
21348;DHT22;66030;53.582;9.746;2023-12-20T07:55:45;18.80;99.90
21348;DHT22;66030;53.582;9.746;2023-12-20T07:58:12;18.80;99.90
21348;DHT22;66030;53.582;9.746;2023-12-20T08:00:40;18.70;99.90
21348;DHT22;66030;53.582;9.746;2023-12-20T08:03:08;18.70;99.90
21348;DHT22;66030;53.582;9.746;2023-12-20T08:05:36;18.70;99.90
21348;DHT22;66030;53.582;9.746;2023-12-20T08:08:07;18.70;99.90
21348;DHT22;66030;53.582;9.746;2023-12-20T08:10:35;18.70;99.90
21348;DHT22;66030;53.582;9.746;2023-12-20T08:13:03;18.70;99.90
21348;DHT22;66030;53.582;9.746;2023-12-20T08:15:31;18.70;99.90
21348;DHT22;66030;53.582;9.746;2023-12-20T08:17:59;18.70;99.90
21348;DHT22;66030;53.582;9.746;2023-12-20T08:20:27;18.60;99.90
21348;DHT22;66030;53.582;9.746;2023-12-20T08:23:07;18.60;99.90
21348;DHT22;66030;53.582;9.746;2023-12-20T08:25:34;18.70;99.90
21348;DHT22;66030;53.582;9.746;2023-12-20T08:28:03;18.70;99.90
21348;DHT22;66030;53.582;9.746;2023-12-20T08:30:31;18.70;99.90
21348;DHT22;66030;53.582;9.746;2023-12-20T08:32:59;18.70;99.90
21348;DHT22;66030;53.582;9.746;2023-12-20T08:35:27;18.70;99.90
21348;DHT22;66030;53.582;9.746;2023-12-20T08:37:55;18.70;99.90
21348;DHT22;66030;53.582;9.746;2023-12-20T08:40:25;18.80;99.90
21348;DHT22;66030;53.582;9.746;2023-12-20T08:42:52;18.80;99.90
21348;DHT22;66030;53.582;9.746;2023-12-20T08:45:21;18.80;99.90
21348;DHT22;66030;53.582;9.746;2023-12-20T08:47:49;18.70;99.90
21348;DHT22;66030;53.582;9.746;2023-12-20T08:50:18;18.70;99.90
21348;DHT22;66030;53.582;9.746;2023-12-20T08:52:46;18.70;99.90
21348;DHT22;66030;53.582;9.746;2023-12-20T08:55:14;18.70;99.90
21348;DHT22;66030;53.582;9.746;2023-12-20T08:57:45;18.70;99.90
21348;DHT22;66030;53.582;9.746;2023-12-20T09:00:14;18.70;99.90
21348;DHT22;66030;53.582;9.746;2023-12-20T09:02:42;18.70;99.90
21348;DHT22;66030;53.582;9.746;2023-12-20T09:05:10;18.70;99.90
21348;DHT22;66030;53.582;9.746;2023-12-20T09:07:38;18.70;99.90
21348;DHT22;66030;53.582;9.746;2023-12-20T09:10:07;18.70;99.90
21348;DHT22;66030;53.582;9.746;2023-12-20T09:12:35;18.70;99.90
21348;DHT22;66030;53.582;9.746;2023-12-20T09:15:07;18.70;99.90
21348;DHT22;66030;53.582;9.746;2023-12-20T09:17:35;18.70;99.90
21348;DHT22;66030;53.582;9.746;2023-12-20T09:20:04;18.70;99.90
21348;DHT22;66030;53.582;9.746;2023-12-20T09:22:33;18.70;99.90
21348;DHT22;66030;53.582;9.746;2023-12-20T09:25:01;18.70;99.90
21348;DHT22;66030;53.582;9.746;2023-12-20T09:27:29;18.70;99.90
21348;DHT22;66030;53.582;9.746;2023-12-20T09:29:57;18.70;99.90
21348;DHT22;66030;53.582;9.746;2023-12-20T09:32:26;18.70;99.90
21348;DHT22;66030;53.582;9.746;2023-12-20T09:34:54;18.70;99.90
21348;DHT22;66030;53.582;9.746;2023-12-20T09:37:22;18.70;99.90
21348;DHT22;66030;53.582;9.746;2023-12-20T09:39:50;18.80;99.90
21348;DHT22;66030;53.582;9.746;2023-12-20T09:42:24;18.80;99.90
21348;DHT22;66030;53.582;9.746;2023-12-20T09:44:52;18.80;99.90
21348;DHT22;66030;53.582;9.746;2023-12-20T09:47:20;18.80;99.90
21348;DHT22;66030;53.582;9.746;2023-12-20T09:49:52;18.80;99.90
21348;DHT22;66030;53.582;9.746;2023-12-20T09:52:22;18.80;99.90
21348;DHT22;66030;53.582;9.746;2023-12-20T09:54:52;18.80;99.90
21348;DHT22;66030;53.582;9.746;2023-12-20T09:57:21;18.90;99.90
21348;DHT22;66030;53.582;9.746;2023-12-20T09:59:50;18.90;99.90
21348;DHT22;66030;53.582;9.746;2023-12-20T10:02:20;18.90;99.90
21348;DHT22;66030;53.582;9.746;2023-12-20T10:04:54;19.00;99.90
21348;DHT22;66030;53.582;9.746;2023-12-20T10:07:22;18.90;99.90
21348;DHT22;66030;53.582;9.746;2023-12-20T10:09:54;19.00;99.90
21348;DHT22;66030;53.582;9.746;2023-12-20T10:12:23;19.00;99.90
21348;DHT22;66030;53.582;9.746;2023-12-20T10:14:50;19.00;99.90
21348;DHT22;66030;53.582;9.746;2023-12-20T10:17:18;19.00;99.90
21348;DHT22;66030;53.582;9.746;2023-12-20T10:19:46;19.00;99.90
21348;DHT22;66030;53.582;9.746;2023-12-20T10:22:16;19.00;99.90
21348;DHT22;66030;53.582;9.746;2023-12-20T10:24:45;19.00;99.90
21348;DHT22;66030;53.582;9.746;2023-12-20T10:27:14;19.00;99.90
21348;DHT22;66030;53.582;9.746;2023-12-20T10:29:44;19.00;99.90
21348;DHT22;66030;53.582;9.746;2023-12-20T10:32:22;19.00;99.90
21348;DHT22;66030;53.582;9.746;2023-12-20T10:34:51;19.00;99.90
21348;DHT22;66030;53.582;9.746;2023-12-20T10:37:20;19.00;99.90
21348;DHT22;66030;53.582;9.746;2023-12-20T10:39:50;19.00;99.90
21348;DHT22;66030;53.582;9.746;2023-12-20T10:42:20;19.00;99.90
21348;DHT22;66030;53.582;9.746;2023-12-20T10:44:49;19.00;99.90
21348;DHT22;66030;53.582;9.746;2023-12-20T10:47:17;19.00;99.90
21348;DHT22;66030;53.582;9.746;2023-12-20T10:49:53;19.00;99.90
21348;DHT22;66030;53.582;9.746;2023-12-20T10:52:34;19.00;99.90
21348;DHT22;66030;53.582;9.746;2023-12-20T10:55:03;19.00;99.90
21348;DHT22;66030;53.582;9.746;2023-12-20T10:57:32;19.00;99.90
21348;DHT22;66030;53.582;9.746;2023-12-20T11:00:01;19.00;99.90
21348;DHT22;66030;53.582;9.746;2023-12-20T11:02:32;19.00;99.90
21348;DHT22;66030;53.582;9.746;2023-12-20T11:05:09;19.00;99.90
21348;DHT22;66030;53.582;9.746;2023-12-20T11:07:43;19.00;99.90
21348;DHT22;66030;53.582;9.746;2023-12-20T11:10:16;19.00;99.90
21348;DHT22;66030;53.582;9.746;2023-12-20T11:12:52;19.10;99.90
21348;DHT22;66030;53.582;9.746;2023-12-20T11:15:21;19.10;99.90
21348;DHT22;66030;53.582;9.746;2023-12-20T11:17:55;19.10;99.90
21348;DHT22;66030;53.582;9.746;2023-12-20T11:20:23;19.10;99.90
21348;DHT22;66030;53.582;9.746;2023-12-20T11:22:54;19.10;99.90
21348;DHT22;66030;53.582;9.746;2023-12-20T11:25:23;19.10;99.90
21348;DHT22;66030;53.582;9.746;2023-12-20T11:28:08;19.10;99.90
21348;DHT22;66030;53.582;9.746;2023-12-20T11:30:46;19.20;99.90
21348;DHT22;66030;53.582;9.746;2023-12-20T11:33:14;19.20;99.90
21348;DHT22;66030;53.582;9.746;2023-12-20T11:35:45;19.20;99.90
21348;DHT22;66030;53.582;9.746;2023-12-20T11:38:14;19.10;99.90
21348;DHT22;66030;53.582;9.746;2023-12-20T11:40:43;19.10;99.90
21348;DHT22;66030;53.582;9.746;2023-12-20T11:43:11;19.20;99.90
21348;DHT22;66030;53.582;9.746;2023-12-20T11:45:49;19.20;99.90
21348;DHT22;66030;53.582;9.746;2023-12-20T11:48:18;19.20;99.90
21348;DHT22;66030;53.582;9.746;2023-12-20T11:50:46;19.10;99.90
21348;DHT22;66030;53.582;9.746;2023-12-20T11:53:16;19.10;99.90
21348;DHT22;66030;53.582;9.746;2023-12-20T11:55:47;19.10;99.90
21348;DHT22;66030;53.582;9.746;2023-12-20T11:58:15;19.10;99.90
21348;DHT22;66030;53.582;9.746;2023-12-20T12:00:43;19.10;99.90
21348;DHT22;66030;53.582;9.746;2023-12-20T12:03:14;19.20;99.90
21348;DHT22;66030;53.582;9.746;2023-12-20T12:05:42;19.20;99.90
21348;DHT22;66030;53.582;9.746;2023-12-20T12:08:10;19.20;99.90
21348;DHT22;66030;53.582;9.746;2023-12-20T12:10:39;19.20;99.90
21348;DHT22;66030;53.582;9.746;2023-12-20T12:13:07;19.20;99.90
21348;DHT22;66030;53.582;9.746;2023-12-20T12:15:36;19.30;99.90
21348;DHT22;66030;53.582;9.746;2023-12-20T12:18:05;19.30;99.90
21348;DHT22;66030;53.582;9.746;2023-12-20T12:20:32;19.30;99.90
21348;DHT22;66030;53.582;9.746;2023-12-20T12:23:04;19.30;99.90
21348;DHT22;66030;53.582;9.746;2023-12-20T12:25:35;19.20;99.90
21348;DHT22;66030;53.582;9.746;2023-12-20T12:28:11;19.30;99.90
21348;DHT22;66030;53.582;9.746;2023-12-20T12:30:39;19.20;99.90
21348;DHT22;66030;53.582;9.746;2023-12-20T12:33:19;19.20;99.90
21348;DHT22;66030;53.582;9.746;2023-12-20T12:35:48;19.20;99.90
21348;DHT22;66030;53.582;9.746;2023-12-20T12:38:16;19.20;99.90
21348;DHT22;66030;53.582;9.746;2023-12-20T12:40:43;19.20;99.90
21348;DHT22;66030;53.582;9.746;2023-12-20T12:43:13;19.30;99.90
21348;DHT22;66030;53.582;9.746;2023-12-20T12:45:40;19.40;99.90
21348;DHT22;66030;53.582;9.746;2023-12-20T12:48:08;19.40;99.90
21348;DHT22;66030;53.582;9.746;2023-12-20T12:50:36;19.40;99.90
21348;DHT22;66030;53.582;9.746;2023-12-20T12:53:04;19.50;99.90
21348;DHT22;66030;53.582;9.746;2023-12-20T12:55:33;19.50;99.90
21348;DHT22;66030;53.582;9.746;2023-12-20T12:58:01;19.50;99.90
21348;DHT22;66030;53.582;9.746;2023-12-20T13:00:30;19.40;99.90
21348;DHT22;66030;53.582;9.746;2023-12-20T13:02:58;19.40;99.90
21348;DHT22;66030;53.582;9.746;2023-12-20T13:05:26;19.40;99.90
21348;DHT22;66030;53.582;9.746;2023-12-20T13:07:55;19.30;99.90
21348;DHT22;66030;53.582;9.746;2023-12-20T13:10:22;19.30;99.90
21348;DHT22;66030;53.582;9.746;2023-12-20T13:12:50;19.30;99.90
21348;DHT22;66030;53.582;9.746;2023-12-20T13:15:18;19.30;99.90
21348;DHT22;66030;53.582;9.746;2023-12-20T13:17:47;19.30;99.90
21348;DHT22;66030;53.582;9.746;2023-12-20T13:20:16;19.30;99.90
21348;DHT22;66030;53.582;9.746;2023-12-20T13:22:43;19.30;99.90
21348;DHT22;66030;53.582;9.746;2023-12-20T13:25:11;19.30;99.90
21348;DHT22;66030;53.582;9.746;2023-12-20T13:27:41;19.30;99.90
21348;DHT22;66030;53.582;9.746;2023-12-20T13:30:10;19.40;99.90
21348;DHT22;66030;53.582;9.746;2023-12-20T13:32:38;19.40;99.90
21348;DHT22;66030;53.582;9.746;2023-12-20T13:35:08;19.40;99.90
21348;DHT22;66030;53.582;9.746;2023-12-20T13:37:36;19.40;99.90
21348;DHT22;66030;53.582;9.746;2023-12-20T13:40:05;19.40;99.90
21348;DHT22;66030;53.582;9.746;2023-12-20T13:42:33;19.40;99.90
21348;DHT22;66030;53.582;9.746;2023-12-20T13:45:04;19.50;99.90
21348;DHT22;66030;53.582;9.746;2023-12-20T13:47:35;19.50;99.90
21348;DHT22;66030;53.582;9.746;2023-12-20T13:50:04;19.50;99.90
21348;DHT22;66030;53.582;9.746;2023-12-20T13:52:33;19.50;99.90
21348;DHT22;66030;53.582;9.746;2023-12-20T13:55:05;19.50;99.90
21348;DHT22;66030;53.582;9.746;2023-12-20T13:57:34;19.50;99.90
21348;DHT22;66030;53.582;9.746;2023-12-20T14:00:10;19.50;99.90
21348;DHT22;66030;53.582;9.746;2023-12-20T14:02:41;19.50;99.90
21348;DHT22;66030;53.582;9.746;2023-12-20T14:05:09;19.50;99.90
21348;DHT22;66030;53.582;9.746;2023-12-20T14:07:39;19.50;99.90
21348;DHT22;66030;53.582;9.746;2023-12-20T14:10:07;19.50;99.90
21348;DHT22;66030;53.582;9.746;2023-12-20T14:12:37;19.50;99.90
21348;DHT22;66030;53.582;9.746;2023-12-20T14:15:06;19.50;99.90
21348;DHT22;66030;53.582;9.746;2023-12-20T14:17:38;19.50;99.90
21348;DHT22;66030;53.582;9.746;2023-12-20T14:20:07;19.50;99.90
21348;DHT22;66030;53.582;9.746;2023-12-20T14:22:35;19.40;99.90
21348;DHT22;66030;53.582;9.746;2023-12-20T14:25:07;19.40;99.90
21348;DHT22;66030;53.582;9.746;2023-12-20T14:27:36;19.40;99.90
21348;DHT22;66030;53.582;9.746;2023-12-20T14:30:05;19.40;99.90
21348;DHT22;66030;53.582;9.746;2023-12-20T14:32:34;19.40;99.90
21348;DHT22;66030;53.582;9.746;2023-12-20T14:35:04;19.40;99.90
21348;DHT22;66030;53.582;9.746;2023-12-20T14:37:33;19.40;99.90
21348;DHT22;66030;53.582;9.746;2023-12-20T14:40:00;19.40;99.90
21348;DHT22;66030;53.582;9.746;2023-12-20T14:42:30;19.40;99.90
21348;DHT22;66030;53.582;9.746;2023-12-20T14:44:59;19.40;99.90
21348;DHT22;66030;53.582;9.746;2023-12-20T14:47:27;19.40;99.90
21348;DHT22;66030;53.582;9.746;2023-12-20T14:49:54;19.40;99.90
21348;DHT22;66030;53.582;9.746;2023-12-20T14:52:22;19.40;99.90
21348;DHT22;66030;53.582;9.746;2023-12-20T14:54:50;19.40;99.90
21348;DHT22;66030;53.582;9.746;2023-12-20T14:57:18;19.40;99.90
21348;DHT22;66030;53.582;9.746;2023-12-20T14:59:47;19.40;99.90
21348;DHT22;66030;53.582;9.746;2023-12-20T15:02:15;19.50;99.90
21348;DHT22;66030;53.582;9.746;2023-12-20T15:04:43;19.50;99.90
21348;DHT22;66030;53.582;9.746;2023-12-20T15:07:11;19.50;99.90
21348;DHT22;66030;53.582;9.746;2023-12-20T15:09:39;19.60;99.90
21348;DHT22;66030;53.582;9.746;2023-12-20T15:12:10;19.60;99.90
21348;DHT22;66030;53.582;9.746;2023-12-20T15:14:38;19.60;99.90
21348;DHT22;66030;53.582;9.746;2023-12-20T15:17:07;19.60;99.90
21348;DHT22;66030;53.582;9.746;2023-12-20T15:19:35;19.60;99.90
21348;DHT22;66030;53.582;9.746;2023-12-20T15:22:03;19.60;99.90
21348;DHT22;66030;53.582;9.746;2023-12-20T15:24:31;19.60;99.90
21348;DHT22;66030;53.582;9.746;2023-12-20T15:27:05;19.60;99.90
21348;DHT22;66030;53.582;9.746;2023-12-20T15:29:33;19.60;99.90
21348;DHT22;66030;53.582;9.746;2023-12-20T15:32:01;19.60;99.90
21348;DHT22;66030;53.582;9.746;2023-12-20T15:34:31;19.60;99.90
21348;DHT22;66030;53.582;9.746;2023-12-20T15:36:59;19.60;99.90
21348;DHT22;66030;53.582;9.746;2023-12-20T15:39:27;19.60;99.90